sensor_id;sensor_type;location;lat;lon;timestamp;pressure;altitude;pressure_sealevel;temperature;humidity
56042;BME280;48756;41.374;2.066;2023-10-08T00:01:34;101794.06;;;21.68;100.00
56042;BME280;48756;41.374;2.066;2023-10-08T00:04:00;101791.22;;;21.96;100.00
56042;BME280;48756;41.374;2.066;2023-10-08T00:06:29;101787.28;;;22.06;100.00
56042;BME280;48756;41.374;2.066;2023-10-08T00:08:55;101790.19;;;22.22;100.00
56042;BME280;48756;41.374;2.066;2023-10-08T00:11:26;101788.06;;;22.08;100.00
56042;BME280;48756;41.374;2.066;2023-10-08T00:13:54;101792.38;;;22.11;100.00
56042;BME280;48756;41.374;2.066;2023-10-08T00:16:22;101793.34;;;21.86;100.00
56042;BME280;48756;41.374;2.066;2023-10-08T00:18:47;101788.22;;;21.82;100.00
56042;BME280;48756;41.374;2.066;2023-10-08T00:21:18;101787.56;;;21.98;100.00
56042;BME280;48756;41.374;2.066;2023-10-08T00:23:45;101783.38;;;22.15;100.00
56042;BME280;48756;41.374;2.066;2023-10-08T00:26:18;101789.25;;;22.23;100.00
56042;BME280;48756;41.374;2.066;2023-10-08T00:28:54;101793.63;;;22.24;100.00
56042;BME280;48756;41.374;2.066;2023-10-08T00:31:20;101789.44;;;22.18;100.00
56042;BME280;48756;41.374;2.066;2023-10-08T00:33:49;101788.44;;;22.21;100.00
56042;BME280;48756;41.374;2.066;2023-10-08T00:36:15;101793.50;;;22.27;100.00
56042;BME280;48756;41.374;2.066;2023-10-08T00:38:45;101789.38;;;22.20;100.00
56042;BME280;48756;41.374;2.066;2023-10-08T00:41:14;101788.56;;;22.18;100.00
56042;BME280;48756;41.374;2.066;2023-10-08T00:43:42;101777.63;;;22.04;100.00
56042;BME280;48756;41.374;2.066;2023-10-08T00:46:10;101779.91;;;22.13;100.00
56042;BME280;48756;41.374;2.066;2023-10-08T00:48:52;101780.28;;;22.04;100.00
56042;BME280;48756;41.374;2.066;2023-10-08T00:51:23;101778.53;;;22.02;100.00
56042;BME280;48756;41.374;2.066;2023-10-08T00:53:56;101774.41;;;21.95;100.00
56042;BME280;48756;41.374;2.066;2023-10-08T00:56:29;101781.19;;;22.02;100.00
56042;BME280;48756;41.374;2.066;2023-10-08T00:59:18;101785.22;;;22.13;100.00
56042;BME280;48756;41.374;2.066;2023-10-08T01:01:48;101782.22;;;22.22;100.00
56042;BME280;48756;41.374;2.066;2023-10-08T01:04:21;101788.38;;;22.22;100.00
56042;BME280;48756;41.374;2.066;2023-10-08T01:06:53;101785.53;;;22.27;99.69
56042;BME280;48756;41.374;2.066;2023-10-08T01:09:25;101783.81;;;22.26;99.23
56042;BME280;48756;41.374;2.066;2023-10-08T01:12:14;101786.13;;;21.90;100.00
56042;BME280;48756;41.374;2.066;2023-10-08T01:14:45;101780.78;;;21.68;100.00
56042;BME280;48756;41.374;2.066;2023-10-08T01:17:12;101772.97;;;21.65;100.00
56042;BME280;48756;41.374;2.066;2023-10-08T01:19:41;101777.13;;;21.49;100.00
56042;BME280;48756;41.374;2.066;2023-10-08T01:22:13;101764.13;;;21.64;100.00
56042;BME280;48756;41.374;2.066;2023-10-08T01:24:44;101767.34;;;21.73;100.00
56042;BME280;48756;41.374;2.066;2023-10-08T01:27:13;101767.69;;;21.87;100.00
56042;BME280;48756;41.374;2.066;2023-10-08T01:29:45;101767.38;;;21.49;100.00
56042;BME280;48756;41.374;2.066;2023-10-08T01:32:10;101763.00;;;21.48;100.00
56042;BME280;48756;41.374;2.066;2023-10-08T01:34:37;101759.59;;;21.45;100.00
56042;BME280;48756;41.374;2.066;2023-10-08T01:37:03;101757.75;;;21.47;100.00
56042;BME280;48756;41.374;2.066;2023-10-08T01:39:36;101762.25;;;21.45;100.00
56042;BME280;48756;41.374;2.066;2023-10-08T01:42:02;101754.41;;;21.42;100.00
56042;BME280;48756;41.374;2.066;2023-10-08T01:44:28;101753.69;;;21.38;100.00
56042;BME280;48756;41.374;2.066;2023-10-08T01:46:56;101758.63;;;21.47;100.00
56042;BME280;48756;41.374;2.066;2023-10-08T01:49:23;101747.38;;;21.64;100.00
56042;BME280;48756;41.374;2.066;2023-10-08T01:51:54;101754.47;;;21.63;100.00
56042;BME280;48756;41.374;2.066;2023-10-08T01:54:20;101755.81;;;21.52;100.00
56042;BME280;48756;41.374;2.066;2023-10-08T01:56:46;101752.31;;;21.50;100.00
56042;BME280;48756;41.374;2.066;2023-10-08T01:59:14;101755.97;;;21.47;100.00
56042;BME280;48756;41.374;2.066;2023-10-08T02:01:43;101753.84;;;21.57;100.00
56042;BME280;48756;41.374;2.066;2023-10-08T02:04:10;101758.97;;;21.38;100.00
56042;BME280;48756;41.374;2.066;2023-10-08T02:06:38;101753.00;;;21.33;100.00
56042;BME280;48756;41.374;2.066;2023-10-08T02:09:05;101756.41;;;21.36;100.00
56042;BME280;48756;41.374;2.066;2023-10-08T02:11:45;101755.78;;;21.30;100.00
56042;BME280;48756;41.374;2.066;2023-10-08T02:14:11;101753.69;;;21.38;100.00
56042;BME280;48756;41.374;2.066;2023-10-08T02:16:40;101750.25;;;21.11;100.00
56042;BME280;48756;41.374;2.066;2023-10-08T02:19:07;101751.88;;;21.15;100.00
56042;BME280;48756;41.374;2.066;2023-10-08T02:21:37;101754.28;;;21.21;100.00
56042;BME280;48756;41.374;2.066;2023-10-08T02:24:08;101757.03;;;21.18;100.00
56042;BME280;48756;41.374;2.066;2023-10-08T02:26:37;101750.13;;;21.14;100.00
56042;BME280;48756;41.374;2.066;2023-10-08T02:29:03;101749.28;;;21.14;100.00
56042;BME280;48756;41.374;2.066;2023-10-08T02:31:39;101747.66;;;21.09;100.00
56042;BME280;48756;41.374;2.066;2023-10-08T02:34:07;101755.56;;;21.11;100.00
56042;BME280;48756;41.374;2.066;2023-10-08T02:36:37;101751.88;;;21.15;100.00
56042;BME280;48756;41.374;2.066;2023-10-08T02:39:04;101751.25;;;21.08;100.00
56042;BME280;48756;41.374;2.066;2023-10-08T02:41:40;101747.88;;;21.28;100.00
56042;BME280;48756;41.374;2.066;2023-10-08T02:44:08;101745.91;;;21.33;100.00
56042;BME280;48756;41.374;2.066;2023-10-08T02:46:39;101743.94;;;21.38;100.00
56042;BME280;48756;41.374;2.066;2023-10-08T02:49:08;101741.44;;;21.57;100.00
56042;BME280;48756;41.374;2.066;2023-10-08T02:51:38;101741.38;;;21.59;100.00
56042;BME280;48756;41.374;2.066;2023-10-08T02:54:04;101742.06;;;21.64;99.98
56042;BME280;48756;41.374;2.066;2023-10-08T02:56:32;101739.00;;;21.29;100.00
56042;BME280;48756;41.374;2.066;2023-10-08T02:58:59;101742.56;;;21.28;100.00
56042;BME280;48756;41.374;2.066;2023-10-08T03:01:26;101738.66;;;21.14;100.00
56042;BME280;48756;41.374;2.066;2023-10-08T03:03:51;101736.25;;;21.07;100.00
56042;BME280;48756;41.374;2.066;2023-10-08T03:06:28;101733.00;;;21.23;100.00
56042;BME280;48756;41.374;2.066;2023-10-08T03:08:57;101733.50;;;21.10;100.00
56042;BME280;48756;41.374;2.066;2023-10-08T03:11:29;101731.09;;;21.03;100.00
56042;BME280;48756;41.374;2.066;2023-10-08T03:13:57;101728.56;;;21.00;100.00
56042;BME280;48756;41.374;2.066;2023-10-08T03:16:23;101731.09;;;21.03;100.00
56042;BME280;48756;41.374;2.066;2023-10-08T03:18:54;101733.38;;;21.14;100.00
56042;BME280;48756;41.374;2.066;2023-10-08T03:21:22;101734.78;;;20.99;100.00
56042;BME280;48756;41.374;2.066;2023-10-08T03:24:08;101737.75;;;21.15;100.00
56042;BME280;48756;41.374;2.066;2023-10-08T03:26:52;101739.97;;;21.02;100.00
56042;BME280;48756;41.374;2.066;2023-10-08T03:29:21;101738.09;;;20.82;100.00
56042;BME280;48756;41.374;2.066;2023-10-08T03:31:47;101741.09;;;20.71;100.00
56042;BME280;48756;41.374;2.066;2023-10-08T03:34:13;101743.16;;;20.63;100.00
56042;BME280;48756;41.374;2.066;2023-10-08T03:36:43;101742.44;;;20.58;100.00
56042;BME280;48756;41.374;2.066;2023-10-08T03:39:15;101748.22;;;20.69;100.00
56042;BME280;48756;41.374;2.066;2023-10-08T03:41:41;101739.38;;;20.70;100.00
56042;BME280;48756;41.374;2.066;2023-10-08T03:44:08;101737.72;;;20.91;100.00
56042;BME280;48756;41.374;2.066;2023-10-08T03:46:40;101744.41;;;21.01;100.00
56042;BME280;48756;41.374;2.066;2023-10-08T03:49:09;101740.09;;;20.99;99.63
56042;BME280;48756;41.374;2.066;2023-10-08T03:51:50;101748.13;;;20.72;100.00
56042;BME280;48756;41.374;2.066;2023-10-08T03:54:18;101738.41;;;20.73;100.00
56042;BME280;48756;41.374;2.066;2023-10-08T03:56:59;101738.09;;;20.80;100.00
56042;BME280;48756;41.374;2.066;2023-10-08T03:59:26;101743.69;;;20.73;100.00
56042;BME280;48756;41.374;2.066;2023-10-08T04:02:01;101735.69;;;20.74;98.96
56042;BME280;48756;41.374;2.066;2023-10-08T04:04:43;101744.25;;;20.83;100.00
56042;BME280;48756;41.374;2.066;2023-10-08T04:07:23;101740.81;;;20.79;99.62
56042;BME280;48756;41.374;2.066;2023-10-08T04:09:59;101728.00;;;20.92;99.84
56042;BME280;48756;41.374;2.066;2023-10-08T04:12:50;101730.63;;;20.68;99.22
56042;BME280;48756;41.374;2.066;2023-10-08T04:15:18;101739.25;;;20.73;99.80
56042;BME280;48756;41.374;2.066;2023-10-08T04:17:48;101743.38;;;20.82;99.42
56042;BME280;48756;41.374;2.066;2023-10-08T04:20:16;101738.50;;;20.70;99.30
56042;BME280;48756;41.374;2.066;2023-10-08T04:22:59;101753.13;;;20.55;100.00
56042;BME280;48756;41.374;2.066;2023-10-08T04:25:28;101749.00;;;20.73;99.53
56042;BME280;48756;41.374;2.066;2023-10-08T04:27:55;101749.16;;;20.68;99.07
56042;BME280;48756;41.374;2.066;2023-10-08T04:30:27;101749.50;;;20.58;98.99
56042;BME280;48756;41.374;2.066;2023-10-08T04:33:00;101744.28;;;20.56;99.29
56042;BME280;48756;41.374;2.066;2023-10-08T04:35:34;101739.03;;;20.55;98.82
56042;BME280;48756;41.374;2.066;2023-10-08T04:38:04;101741.50;;;20.59;98.30
56042;BME280;48756;41.374;2.066;2023-10-08T04:40:34;101743.53;;;20.53;100.00
56042;BME280;48756;41.374;2.066;2023-10-08T04:43:07;101743.34;;;20.57;98.22
56042;BME280;48756;41.374;2.066;2023-10-08T04:45:36;101745.75;;;20.65;97.52
56042;BME280;48756;41.374;2.066;2023-10-08T04:48:04;101741.16;;;20.70;97.35
56042;BME280;48756;41.374;2.066;2023-10-08T04:50:35;101741.56;;;20.31;97.80
56042;BME280;48756;41.374;2.066;2023-10-08T04:53:03;101736.44;;;20.27;99.84
56042;BME280;48756;41.374;2.066;2023-10-08T04:55:36;101736.22;;;20.33;99.33
56042;BME280;48756;41.374;2.066;2023-10-08T04:58:07;101739.69;;;20.35;100.00
56042;BME280;48756;41.374;2.066;2023-10-08T05:00:45;101738.81;;;20.34;99.24
56042;BME280;48756;41.374;2.066;2023-10-08T05:03:20;101737.31;;;20.54;99.30
56042;BME280;48756;41.374;2.066;2023-10-08T05:05:48;101729.41;;;20.52;98.69
56042;BME280;48756;41.374;2.066;2023-10-08T05:08:21;101728.84;;;20.44;98.08
56042;BME280;48756;41.374;2.066;2023-10-08T05:10:54;101738.06;;;20.31;98.97
56042;BME280;48756;41.374;2.066;2023-10-08T05:13:40;101728.94;;;20.14;99.63
56042;BME280;48756;41.374;2.066;2023-10-08T05:16:22;101727.09;;;20.16;100.00
56042;BME280;48756;41.374;2.066;2023-10-08T05:19:23;101730.69;;;20.14;100.00
56042;BME280;48756;41.374;2.066;2023-10-08T05:22:13;101740.94;;;19.98;100.00
56042;BME280;48756;41.374;2.066;2023-10-08T05:24:55;101741.13;;;20.18;100.00
56042;BME280;48756;41.374;2.066;2023-10-08T05:27:34;101745.84;;;20.35;98.30
56042;BME280;48756;41.374;2.066;2023-10-08T05:30:19;101745.91;;;20.34;99.41
56042;BME280;48756;41.374;2.066;2023-10-08T05:32:57;101745.09;;;20.32;98.67
56042;BME280;48756;41.374;2.066;2023-10-08T05:35:30;101749.56;;;20.30;99.58
56042;BME280;48756;41.374;2.066;2023-10-08T05:38:17;101748.16;;;20.19;100.00
56042;BME280;48756;41.374;2.066;2023-10-08T05:40:51;101754.97;;;20.00;100.00
56042;BME280;48756;41.374;2.066;2023-10-08T05:43:19;101755.06;;;19.97;100.00
56042;BME280;48756;41.374;2.066;2023-10-08T05:46:06;101754.25;;;19.95;100.00
56042;BME280;48756;41.374;2.066;2023-10-08T05:48:51;101758.19;;;19.82;100.00
56042;BME280;48756;41.374;2.066;2023-10-08T05:51:30;101764.66;;;19.73;100.00
56042;BME280;48756;41.374;2.066;2023-10-08T05:54:20;101766.53;;;19.68;100.00
56042;BME280;48756;41.374;2.066;2023-10-08T05:59:30;101778.25;;;19.89;100.00
56042;BME280;48756;41.374;2.066;2023-10-08T06:02:06;101780.50;;;20.01;100.00
56042;BME280;48756;41.374;2.066;2023-10-08T06:04:53;101791.50;;;19.87;100.00
56042;BME280;48756;41.374;2.066;2023-10-08T06:07:37;101794.75;;;19.97;100.00
56042;BME280;48756;41.374;2.066;2023-10-08T06:10:14;101792.72;;;20.05;100.00
56042;BME280;48756;41.374;2.066;2023-10-08T06:12:58;101793.13;;;19.93;100.00
56042;BME280;48756;41.374;2.066;2023-10-08T06:15:37;101797.91;;;20.08;100.00
56042;BME280;48756;41.374;2.066;2023-10-08T06:18:26;101795.38;;;20.05;100.00
56042;BME280;48756;41.374;2.066;2023-10-08T06:20:56;101800.38;;;20.42;100.00
56042;BME280;48756;41.374;2.066;2023-10-08T06:23:24;101804.94;;;20.64;100.00
56042;BME280;48756;41.374;2.066;2023-10-08T06:25:52;101807.22;;;20.48;100.00
56042;BME280;48756;41.374;2.066;2023-10-08T06:28:37;101811.88;;;20.41;100.00
56042;BME280;48756;41.374;2.066;2023-10-08T06:31:04;101813.41;;;20.73;100.00
56042;BME280;48756;41.374;2.066;2023-10-08T06:33:38;101817.84;;;20.98;99.29
56042;BME280;48756;41.374;2.066;2023-10-08T06:36:06;101822.63;;;21.13;99.15
56042;BME280;48756;41.374;2.066;2023-10-08T06:38:42;101827.69;;;20.94;99.39
56042;BME280;48756;41.374;2.066;2023-10-08T06:41:15;101825.22;;;20.90;99.18
56042;BME280;48756;41.374;2.066;2023-10-08T06:43:45;101832.78;;;21.25;98.05
56042;BME280;48756;41.374;2.066;2023-10-08T06:46:32;101836.16;;;21.30;97.06
56042;BME280;48756;41.374;2.066;2023-10-08T06:49:02;101838.75;;;21.32;96.23
56042;BME280;48756;41.374;2.066;2023-10-08T06:51:28;101843.94;;;20.85;97.70
56042;BME280;48756;41.374;2.066;2023-10-08T06:53:56;101843.31;;;21.02;98.32
56042;BME280;48756;41.374;2.066;2023-10-08T06:56:25;101845.66;;;21.11;97.53
56042;BME280;48756;41.374;2.066;2023-10-08T06:58:51;101847.66;;;21.04;98.62
56042;BME280;48756;41.374;2.066;2023-10-08T07:01:24;101846.63;;;20.84;100.00
56042;BME280;48756;41.374;2.066;2023-10-08T07:03:51;101854.63;;;20.82;100.00
56042;BME280;48756;41.374;2.066;2023-10-08T07:06:20;101858.00;;;20.87;100.00
56042;BME280;48756;41.374;2.066;2023-10-08T07:08:58;101862.09;;;21.21;97.55
56042;BME280;48756;41.374;2.066;2023-10-08T07:11:25;101870.56;;;21.32;96.59
56042;BME280;48756;41.374;2.066;2023-10-08T07:13:55;101873.13;;;21.58;95.59
56042;BME280;48756;41.374;2.066;2023-10-08T07:16:22;101878.19;;;21.64;95.86
56042;BME280;48756;41.374;2.066;2023-10-08T07:18:48;101878.09;;;21.67;94.50
56042;BME280;48756;41.374;2.066;2023-10-08T07:21:27;101880.09;;;21.61;94.61
56042;BME280;48756;41.374;2.066;2023-10-08T07:24:05;101876.28;;;21.91;93.30
56042;BME280;48756;41.374;2.066;2023-10-08T07:26:37;101875.31;;;21.70;93.87
56042;BME280;48756;41.374;2.066;2023-10-08T07:29:05;101880.78;;;21.89;92.54
56042;BME280;48756;41.374;2.066;2023-10-08T07:31:36;101883.56;;;21.86;91.97
56042;BME280;48756;41.374;2.066;2023-10-08T07:34:03;101895.44;;;21.53;94.13
56042;BME280;48756;41.374;2.066;2023-10-08T07:36:42;101885.63;;;22.01;92.34
56042;BME280;48756;41.374;2.066;2023-10-08T07:39:08;101888.41;;;22.22;91.32
56042;BME280;48756;41.374;2.066;2023-10-08T07:41:46;101894.72;;;21.96;91.95
56042;BME280;48756;41.374;2.066;2023-10-08T07:44:16;101886.78;;;22.18;89.72
56042;BME280;48756;41.374;2.066;2023-10-08T07:46:48;101885.53;;;22.05;93.35
56042;BME280;48756;41.374;2.066;2023-10-08T07:49:13;101890.22;;;21.75;94.03
56042;BME280;48756;41.374;2.066;2023-10-08T07:51:40;101892.00;;;21.97;92.52
56042;BME280;48756;41.374;2.066;2023-10-08T07:54:06;101888.75;;;21.89;92.16
56042;BME280;48756;41.374;2.066;2023-10-08T07:56:35;101899.97;;;21.74;93.90
56042;BME280;48756;41.374;2.066;2023-10-08T07:59:03;101903.69;;;21.92;93.19
56042;BME280;48756;41.374;2.066;2023-10-08T08:01:34;101897.38;;;21.94;91.04
56042;BME280;48756;41.374;2.066;2023-10-08T08:04:00;101905.94;;;22.02;91.16
56042;BME280;48756;41.374;2.066;2023-10-08T08:06:26;101901.22;;;21.87;92.03
56042;BME280;48756;41.374;2.066;2023-10-08T08:08:51;101909.09;;;21.89;92.36
56042;BME280;48756;41.374;2.066;2023-10-08T08:11:17;101912.72;;;22.11;90.60
56042;BME280;48756;41.374;2.066;2023-10-08T08:13:44;101911.06;;;22.30;90.36
56042;BME280;48756;41.374;2.066;2023-10-08T08:16:14;101911.94;;;22.31;89.48
56042;BME280;48756;41.374;2.066;2023-10-08T08:21:12;101922.16;;;22.42;89.96
56042;BME280;48756;41.374;2.066;2023-10-08T08:23:44;101916.88;;;22.40;90.82
56042;BME280;48756;41.374;2.066;2023-10-08T08:26:18;101910.16;;;22.53;88.94
56042;BME280;48756;41.374;2.066;2023-10-08T08:28:59;101914.78;;;22.92;88.07
56042;BME280;48756;41.374;2.066;2023-10-08T08:31:28;101928.09;;;23.12;86.57
56042;BME280;48756;41.374;2.066;2023-10-08T08:33:58;101923.22;;;23.22;86.09
56042;BME280;48756;41.374;2.066;2023-10-08T08:36:29;101920.41;;;23.05;86.29
56042;BME280;48756;41.374;2.066;2023-10-08T08:41:20;101922.84;;;23.31;85.46
56042;BME280;48756;41.374;2.066;2023-10-08T08:43:52;101917.84;;;23.44;83.65
56042;BME280;48756;41.374;2.066;2023-10-08T08:46:32;101921.44;;;23.63;83.24
56042;BME280;48756;41.374;2.066;2023-10-08T08:49:07;101922.94;;;23.48;84.43
56042;BME280;48756;41.374;2.066;2023-10-08T08:51:35;101920.94;;;23.53;84.08
56042;BME280;48756;41.374;2.066;2023-10-08T08:54:02;101927.69;;;23.62;82.39
56042;BME280;48756;41.374;2.066;2023-10-08T08:56:34;101917.50;;;23.91;81.50
56042;BME280;48756;41.374;2.066;2023-10-08T08:59:01;101916.34;;;23.96;81.87
56042;BME280;48756;41.374;2.066;2023-10-08T09:01:27;101917.38;;;24.12;81.16
56042;BME280;48756;41.374;2.066;2023-10-08T09:04:01;101926.81;;;24.38;80.01
56042;BME280;48756;41.374;2.066;2023-10-08T09:06:32;101927.09;;;24.32;80.67
56042;BME280;48756;41.374;2.066;2023-10-08T09:09:00;101926.00;;;24.18;80.79
56042;BME280;48756;41.374;2.066;2023-10-08T09:11:40;101917.22;;;24.53;80.16
56042;BME280;48756;41.374;2.066;2023-10-08T09:14:08;101922.19;;;24.78;78.68
56042;BME280;48756;41.374;2.066;2023-10-08T09:16:35;101927.97;;;25.05;78.99
56042;BME280;48756;41.374;2.066;2023-10-08T09:19:02;101922.72;;;24.85;78.54
56042;BME280;48756;41.374;2.066;2023-10-08T09:21:29;101929.28;;;24.96;77.45
56042;BME280;48756;41.374;2.066;2023-10-08T09:23:55;101917.56;;;25.33;76.30
56042;BME280;48756;41.374;2.066;2023-10-08T09:26:25;101919.69;;;25.44;76.72
56042;BME280;48756;41.374;2.066;2023-10-08T09:28:52;101923.88;;;25.65;75.34
56042;BME280;48756;41.374;2.066;2023-10-08T09:31:18;101915.44;;;25.90;74.77
56042;BME280;48756;41.374;2.066;2023-10-08T09:33:55;101911.06;;;26.05;71.14
56042;BME280;48756;41.374;2.066;2023-10-08T09:36:22;101925.69;;;25.65;75.02
56042;BME280;48756;41.374;2.066;2023-10-08T09:39:00;101920.81;;;26.06;73.59
56042;BME280;48756;41.374;2.066;2023-10-08T09:41:29;101915.19;;;25.95;74.11
56042;BME280;48756;41.374;2.066;2023-10-08T09:43:56;101921.22;;;26.14;72.93
56042;BME280;48756;41.374;2.066;2023-10-08T09:46:29;101920.34;;;25.98;73.64
56042;BME280;48756;41.374;2.066;2023-10-08T09:48:59;101910.47;;;26.16;70.56
56042;BME280;48756;41.374;2.066;2023-10-08T09:51:28;101912.03;;;26.36;70.67
56042;BME280;48756;41.374;2.066;2023-10-08T09:54:11;101909.22;;;26.69;70.01
56042;BME280;48756;41.374;2.066;2023-10-08T09:56:40;101908.22;;;27.01;68.35
56042;BME280;48756;41.374;2.066;2023-10-08T09:59:09;101910.22;;;26.36;69.38
56042;BME280;48756;41.374;2.066;2023-10-08T10:01:37;101902.66;;;26.74;68.99
56042;BME280;48756;41.374;2.066;2023-10-08T10:04:10;101902.25;;;26.96;68.71
56042;BME280;48756;41.374;2.066;2023-10-08T10:06:37;101901.34;;;27.11;65.96
56042;BME280;48756;41.374;2.066;2023-10-08T10:09:04;101898.88;;;27.08;66.54
56042;BME280;48756;41.374;2.066;2023-10-08T10:11:45;101892.69;;;27.36;65.71
56042;BME280;48756;41.374;2.066;2023-10-08T10:14:13;101892.13;;;27.45;64.16
56042;BME280;48756;41.374;2.066;2023-10-08T10:16:39;101882.00;;;27.93;62.09
56042;BME280;48756;41.374;2.066;2023-10-08T10:19:16;101881.34;;;27.90;60.70
56042;BME280;48756;41.374;2.066;2023-10-08T10:21:43;101883.16;;;27.75;59.79
56042;BME280;48756;41.374;2.066;2023-10-08T10:24:22;101875.75;;;28.07;58.03
56042;BME280;48756;41.374;2.066;2023-10-08T10:27:09;101886.44;;;27.66;58.83
56042;BME280;48756;41.374;2.066;2023-10-08T10:29:36;101889.06;;;27.52;60.37
56042;BME280;48756;41.374;2.066;2023-10-08T10:32:01;101884.81;;;27.63;58.89
56042;BME280;48756;41.374;2.066;2023-10-08T10:34:29;101879.63;;;27.89;56.44
56042;BME280;48756;41.374;2.066;2023-10-08T10:36:57;101887.00;;;27.71;55.66
56042;BME280;48756;41.374;2.066;2023-10-08T10:39:34;101885.63;;;27.50;58.13
56042;BME280;48756;41.374;2.066;2023-10-08T10:42:05;101886.59;;;27.77;57.92
56042;BME280;48756;41.374;2.066;2023-10-08T10:44:33;101880.84;;;27.97;58.42
56042;BME280;48756;41.374;2.066;2023-10-08T10:47:02;101871.53;;;28.03;57.92
56042;BME280;48756;41.374;2.066;2023-10-08T10:49:50;101874.91;;;28.60;55.04
56042;BME280;48756;41.374;2.066;2023-10-08T10:52:24;101873.88;;;28.76;55.06
56042;BME280;48756;41.374;2.066;2023-10-08T10:55:08;101870.13;;;28.39;55.25
56042;BME280;48756;41.374;2.066;2023-10-08T10:57:42;101870.78;;;28.42;53.93
56042;BME280;48756;41.374;2.066;2023-10-08T11:00:09;101871.59;;;28.30;54.76
56042;BME280;48756;41.374;2.066;2023-10-08T11:03:04;101869.91;;;28.42;54.61
56042;BME280;48756;41.374;2.066;2023-10-08T11:05:56;101868.28;;;29.06;52.82
56042;BME280;48756;41.374;2.066;2023-10-08T11:08:26;101865.59;;;29.44;51.33
56042;BME280;48756;41.374;2.066;2023-10-08T11:10:52;101870.72;;;28.96;53.00
56042;BME280;48756;41.374;2.066;2023-10-08T11:13:20;101861.22;;;28.78;52.75
56042;BME280;48756;41.374;2.066;2023-10-08T11:15:48;101862.53;;;28.85;52.19
56042;BME280;48756;41.374;2.066;2023-10-08T11:18:19;101854.09;;;29.29;52.31
56042;BME280;48756;41.374;2.066;2023-10-08T11:20:47;101852.91;;;29.33;52.85
56042;BME280;48756;41.374;2.066;2023-10-08T11:23:36;101854.19;;;29.40;52.18
56042;BME280;48756;41.374;2.066;2023-10-08T11:26:03;101851.75;;;29.24;54.93
56042;BME280;48756;41.374;2.066;2023-10-08T11:28:35;101855.59;;;29.71;54.66
56042;BME280;48756;41.374;2.066;2023-10-08T11:31:07;101848.44;;;29.46;55.82
56042;BME280;48756;41.374;2.066;2023-10-08T11:33:40;101845.38;;;29.64;54.15
56042;BME280;48756;41.374;2.066;2023-10-08T11:36:07;101844.72;;;29.73;53.89
56042;BME280;48756;41.374;2.066;2023-10-08T11:38:45;101840.66;;;29.42;54.92
56042;BME280;48756;41.374;2.066;2023-10-08T11:41:16;101837.13;;;29.16;57.06
56042;BME280;48756;41.374;2.066;2023-10-08T11:43:54;101834.56;;;29.27;57.18
56042;BME280;48756;41.374;2.066;2023-10-08T11:46:30;101831.00;;;29.26;57.75
56042;BME280;48756;41.374;2.066;2023-10-08T11:49:05;101829.06;;;29.67;56.50
56042;BME280;48756;41.374;2.066;2023-10-08T11:51:33;101829.69;;;29.57;57.52
56042;BME280;48756;41.374;2.066;2023-10-08T11:54:02;101821.00;;;29.41;58.37
56042;BME280;48756;41.374;2.066;2023-10-08T11:56:31;101819.81;;;29.95;57.42
56042;BME280;48756;41.374;2.066;2023-10-08T11:59:01;101811.59;;;30.09;55.64
56042;BME280;48756;41.374;2.066;2023-10-08T12:01:27;101809.84;;;29.84;55.23
56042;BME280;48756;41.374;2.066;2023-10-08T12:03:54;101810.69;;;29.61;57.64
56042;BME280;48756;41.374;2.066;2023-10-08T12:06:25;101807.41;;;29.81;56.92
56042;BME280;48756;41.374;2.066;2023-10-08T12:08:55;101801.91;;;29.46;56.71
56042;BME280;48756;41.374;2.066;2023-10-08T12:11:26;101810.88;;;29.70;59.11
56042;BME280;48756;41.374;2.066;2023-10-08T12:13:57;101800.50;;;29.90;57.61
56042;BME280;48756;41.374;2.066;2023-10-08T12:16:25;101805.09;;;29.38;59.70
56042;BME280;48756;41.374;2.066;2023-10-08T12:18:55;101800.94;;;29.34;59.45
56042;BME280;48756;41.374;2.066;2023-10-08T12:21:25;101801.59;;;29.50;59.15
56042;BME280;48756;41.374;2.066;2023-10-08T12:23:51;101801.81;;;29.47;58.56
56042;BME280;48756;41.374;2.066;2023-10-08T12:26:18;101792.22;;;29.93;57.56
56042;BME280;48756;41.374;2.066;2023-10-08T12:28:45;101797.28;;;29.84;57.25
56042;BME280;48756;41.374;2.066;2023-10-08T12:31:20;101789.59;;;30.04;57.44
56042;BME280;48756;41.374;2.066;2023-10-08T12:33:50;101788.34;;;29.84;57.45
56042;BME280;48756;41.374;2.066;2023-10-08T12:36:25;101788.56;;;29.94;58.89
56042;BME280;48756;41.374;2.066;2023-10-08T12:38:58;101780.03;;;29.63;59.37
56042;BME280;48756;41.374;2.066;2023-10-08T12:41:27;101776.53;;;29.86;59.11
56042;BME280;48756;41.374;2.066;2023-10-08T12:43:53;101777.94;;;30.16;58.24
56042;BME280;48756;41.374;2.066;2023-10-08T12:46:21;101774.84;;;30.33;57.19
56042;BME280;48756;41.374;2.066;2023-10-08T12:48:50;101768.19;;;29.78;57.83
56042;BME280;48756;41.374;2.066;2023-10-08T12:51:22;101770.09;;;29.40;60.44
56042;BME280;48756;41.374;2.066;2023-10-08T12:53:52;101766.31;;;29.68;58.24
56042;BME280;48756;41.374;2.066;2023-10-08T12:56:26;101771.44;;;29.71;58.51
56042;BME280;48756;41.374;2.066;2023-10-08T12:59:01;101767.81;;;29.59;60.02
56042;BME280;48756;41.374;2.066;2023-10-08T13:01:29;101761.72;;;29.81;59.01
56042;BME280;48756;41.374;2.066;2023-10-08T13:03:55;101757.66;;;29.75;60.67
56042;BME280;48756;41.374;2.066;2023-10-08T13:06:33;101760.00;;;29.80;59.30
56042;BME280;48756;41.374;2.066;2023-10-08T13:08:59;101757.94;;;29.60;60.54
56042;BME280;48756;41.374;2.066;2023-10-08T13:11:26;101756.78;;;29.87;60.35
56042;BME280;48756;41.374;2.066;2023-10-08T13:13:56;101751.19;;;30.02;59.53
56042;BME280;48756;41.374;2.066;2023-10-08T13:16:23;101756.41;;;29.92;60.16